Time,TemperatureF,DewpointF,PressureIn,WindDirection,WindDirectionDegrees,WindSpeedMPH,WindSpeedGustMPH,Humidity,HourlyPrecipIn,Conditions,Clouds,dailyrainin,SoftwareType,DateUTC
2013-05-06 00:00:00,49.0,47.1,29.76,SE,136,7.0,22.0,93,0.04,RA,,0.00,WeatherDisplay:10.37,2013-05-06 04:00:00,
2013-05-06 01:00:00,48.3,47.2,29.75,SE,132,0.0,7.0,96,0.02,-RA,,0.02,WeatherDisplay:10.37,2013-05-06 05:00:00,
2013-05-06 02:00:00,47.7,46.7,29.73,East,96,0.0,3.0,96,0.03,OVC,,0.05,WeatherDisplay:10.37,2013-05-06 06:00:00,
2013-05-06 03:00:00,47.4,46.6,29.69,East,93,0.0,3.0,97,0.03,OVC,,0.08,WeatherDisplay:10.37,2013-05-06 07:00:00,
2013-05-06 04:00:00,46.7,45.9,29.71,North,1,0.0,7.0,97,0.01,OVC,,0.09,WeatherDisplay:10.37,2013-05-06 08:00:00,
2013-05-06 05:00:00,46.0,45.2,29.73,North,1,0.0,0.0,97,0.00,OVC,,0.09,WeatherDisplay:10.37,2013-05-06 09:00:00,
2013-05-06 06:00:00,45.7,44.9,29.74,North,1,0.0,0.0,97,0.00,OVC,,0.09,WeatherDisplay:10.37,2013-05-06 10:00:00,
2013-05-06 07:00:00,45.2,44.4,29.75,North,1,0.0,0.0,97,0.00,OVC,,0.09,WeatherDisplay:10.37,2013-05-06 11:00:00,
2013-05-06 08:00:00,45.2,44.4,29.76,North,2,0.0,0.0,97,0.00,OVC,,0.09,WeatherDisplay:10.37,2013-05-06 12:00:00,
2013-05-06 09:00:00,46.9,46.1,29.78,NNE,21,0.0,2.0,97,0.13,BKN,,0.22,WeatherDisplay:10.37,2013-05-06 13:00:00,
2013-05-06 10:00:00,50.9,47.1,29.78,SE,145,0.0,5.0,87,0.02,OVC,,0.24,WeatherDisplay:10.37,2013-05-06 14:00:00,
2013-05-06 11:00:00,55.0,45.0,29.79,South,172,0.0,7.0,69,0.02,BKN,,0.26,WeatherDisplay:10.37,2013-05-06 15:00:00,
2013-05-06 12:00:00,55.5,45.9,29.80,SSE,152,2.0,7.0,70,0.03,RA,,0.29,WeatherDisplay:10.37,2013-05-06 16:00:00,
2013-05-06 13:00:00,54.6,46.4,29.79,ESE,110,0.0,10.0,74,0.01,OVC,,0.30,WeatherDisplay:10.37,2013-05-06 17:00:00,
2013-05-06 14:00:00,54.5,47.1,29.79,SSE,151,1.0,8.0,76,0.02,OVC,,0.32,WeatherDisplay:10.37,2013-05-06 18:00:00,
2013-05-06 15:00:00,52.5,48.1,29.81,NNE,28,2.0,9.0,85,0.02,OVC,,0.34,WeatherDisplay:10.37,2013-05-06 19:00:00,
2013-05-06 16:00:00,52.9,49.7,29.80,ENE,61,0.0,4.0,89,0.02,OVC,,0.36,WeatherDisplay:10.37,2013-05-06 20:00:00,
2013-05-06 17:00:00,51.9,48.4,29.81,South,175,0.0,5.0,88,0.01,-DZ,,0.37,WeatherDisplay:10.37,2013-05-06 21:00:00,
2013-05-06 18:00:00,51.8,48.7,29.81,SE,141,0.0,3.0,89,0.02,RA,,0.39,WeatherDisplay:10.37,2013-05-06 22:00:00,
2013-05-06 19:00:00,51.3,48.8,29.82,NNE,25,0.0,3.0,91,0.01,OVC,,0.40,WeatherDisplay:10.37,2013-05-06 23:00:00,
2013-05-06 20:00:00,51.0,48.8,29.83,NNE,25,0.0,1.0,92,0.01,OVC,,0.41,WeatherDisplay:10.37,2013-05-07 00:00:00,
2013-05-06 21:00:00,49.9,48.0,29.83,ESE,103,0.0,3.0,93,0.01,OVC,,0.42,WeatherDisplay:10.37,2013-05-07 01:00:00,
2013-05-06 22:00:00,48.0,46.4,29.85,ESE,103,0.0,1.0,94,0.01,SCT,,0.43,WeatherDisplay:10.37,2013-05-07 02:00:00,
2013-05-06 23:00:00,46.6,45.2,29.87,ESE,103,0.0,0.0,95,0.01,BKN,,0.44,WeatherDisplay:10.37,2013-05-07 03:00:00,